Winslow, Arizona
Current Conditions -  °F | °C
As of 2:56 PM on Sunday 23 Nov 2014 (Local Time) from KINW Reporting Station
Clear Clear  
Wind Chill: 10°   Ceiling: Unl
Heat Index: 10°   Visibility: 10mi
Dew Point: -21°   Wind: 25mph
Humidity: 10%   Direction: 330°NNW
Pressure: 30.12"   Gusts: 37mph
Location:  35.02°N, 110.69°W
Report Text: KINW 232156Z AUTO 33022G32KT 10SM CLR 10/M21 A3012 RMK AO2 PK WND 32036/2059 SLP178 T01001211
Loading
Personal Weather Stations






























Interactive Weather Map New forecast layout! Learn more

10-Day Weather Forecast

Advertisements
Track Severe Weather on mobile